sensor_id;sensor_type;location;lat;lon;timestamp;temperature;humidity
1011;DHT22;494;48.744;10.106;2023-04-03T00:01:38;6.20;30.70
1011;DHT22;494;48.744;10.106;2023-04-03T00:04:08;6.30;30.30
1011;DHT22;494;48.744;10.106;2023-04-03T00:06:37;6.30;29.90
1011;DHT22;494;48.744;10.106;2023-04-03T00:09:06;6.10;29.90
1011;DHT22;494;48.744;10.106;2023-04-03T00:11:36;6.20;30.30
1011;DHT22;494;48.744;10.106;2023-04-03T00:14:06;6.30;30.50
1011;DHT22;494;48.744;10.106;2023-04-03T00:16:35;6.20;30.10
1011;DHT22;494;48.744;10.106;2023-04-03T00:19:04;6.40;29.40
1011;DHT22;494;48.744;10.106;2023-04-03T00:21:33;6.50;29.30
1011;DHT22;494;48.744;10.106;2023-04-03T00:24:02;6.50;29.10
1011;DHT22;494;48.744;10.106;2023-04-03T00:26:31;6.50;29.10
1011;DHT22;494;48.744;10.106;2023-04-03T00:29:00;6.60;28.90
1011;DHT22;494;48.744;10.106;2023-04-03T00:31:31;6.60;28.60
1011;DHT22;494;48.744;10.106;2023-04-03T00:33:59;6.60;29.00
1011;DHT22;494;48.744;10.106;2023-04-03T00:36:29;6.80;28.80
1011;DHT22;494;48.744;10.106;2023-04-03T00:38:57;6.60;28.40
1011;DHT22;494;48.744;10.106;2023-04-03T00:41:26;6.70;28.50
1011;DHT22;494;48.744;10.106;2023-04-03T00:43:55;6.60;28.00
1011;DHT22;494;48.744;10.106;2023-04-03T00:46:24;6.40;28.60
1011;DHT22;494;48.744;10.106;2023-04-03T00:48:54;6.50;28.90
1011;DHT22;494;48.744;10.106;2023-04-03T00:51:24;6.50;28.80
1011;DHT22;494;48.744;10.106;2023-04-03T00:53:56;6.70;28.90
1011;DHT22;494;48.744;10.106;2023-04-03T00:56:29;6.50;28.80
1011;DHT22;494;48.744;10.106;2023-04-03T00:59:03;6.60;28.90
1011;DHT22;494;48.744;10.106;2023-04-03T01:01:35;6.70;29.10
1011;DHT22;494;48.744;10.106;2023-04-03T01:04:27;6.70;29.60
1011;DHT22;494;48.744;10.106;2023-04-03T01:07:01;6.60;28.90
1011;DHT22;494;48.744;10.106;2023-04-03T01:09:33;6.70;28.50
1011;DHT22;494;48.744;10.106;2023-04-03T01:12:16;6.50;28.50
1011;DHT22;494;48.744;10.106;2023-04-03T01:14:46;6.60;28.90
1011;DHT22;494;48.744;10.106;2023-04-03T01:17:31;6.70;28.80
1011;DHT22;494;48.744;10.106;2023-04-03T01:20:36;6.60;29.00
1011;DHT22;494;48.744;10.106;2023-04-03T01:23:37;6.70;29.10
1011;DHT22;494;48.744;10.106;2023-04-03T01:26:17;6.70;28.60
1011;DHT22;494;48.744;10.106;2023-04-03T01:28:47;6.70;28.50
1011;DHT22;494;48.744;10.106;2023-04-03T01:31:22;6.70;28.50
1011;DHT22;494;48.744;10.106;2023-04-03T01:33:55;6.70;28.80
1011;DHT22;494;48.744;10.106;2023-04-03T01:36:26;6.70;28.60
1011;DHT22;494;48.744;10.106;2023-04-03T01:38:56;6.70;28.50
1011;DHT22;494;48.744;10.106;2023-04-03T01:41:27;6.80;28.60
1011;DHT22;494;48.744;10.106;2023-04-03T01:43:56;6.70;28.60
1011;DHT22;494;48.744;10.106;2023-04-03T01:46:25;6.70;28.40
1011;DHT22;494;48.744;10.106;2023-04-03T01:48:55;6.50;28.30
1011;DHT22;494;48.744;10.106;2023-04-03T01:51:24;6.70;28.60
1011;DHT22;494;48.744;10.106;2023-04-03T01:53:52;6.70;28.40
1011;DHT22;494;48.744;10.106;2023-04-03T01:56:22;6.70;28.20
1011;DHT22;494;48.744;10.106;2023-04-03T01:58:50;6.60;28.30
1011;DHT22;494;48.744;10.106;2023-04-03T02:01:19;6.70;28.30
1011;DHT22;494;48.744;10.106;2023-04-03T02:03:48;6.80;28.20
1011;DHT22;494;48.744;10.106;2023-04-03T02:06:19;6.70;28.00
1011;DHT22;494;48.744;10.106;2023-04-03T02:08:48;6.80;28.00
1011;DHT22;494;48.744;10.106;2023-04-03T02:11:16;6.60;28.40
1011;DHT22;494;48.744;10.106;2023-04-03T02:13:45;6.70;28.10
1011;DHT22;494;48.744;10.106;2023-04-03T02:16:14;6.60;27.80
1011;DHT22;494;48.744;10.106;2023-04-03T02:18:46;6.60;28.10
1011;DHT22;494;48.744;10.106;2023-04-03T02:21:23;6.70;28.30
1011;DHT22;494;48.744;10.106;2023-04-03T02:23:52;6.70;27.70
1011;DHT22;494;48.744;10.106;2023-04-03T02:26:21;6.80;28.10
1011;DHT22;494;48.744;10.106;2023-04-03T02:28:50;6.60;27.90
1011;DHT22;494;48.744;10.106;2023-04-03T02:31:18;6.50;27.90
1011;DHT22;494;48.744;10.106;2023-04-03T02:33:48;6.30;28.60
1011;DHT22;494;48.744;10.106;2023-04-03T02:36:17;6.30;28.40
1011;DHT22;494;48.744;10.106;2023-04-03T02:38:47;6.40;28.60
1011;DHT22;494;48.744;10.106;2023-04-03T02:41:16;6.30;28.30
1011;DHT22;494;48.744;10.106;2023-04-03T02:43:45;6.20;28.20
1011;DHT22;494;48.744;10.106;2023-04-03T02:46:14;6.20;28.70
1011;DHT22;494;48.744;10.106;2023-04-03T02:48:45;6.20;28.70
1011;DHT22;494;48.744;10.106;2023-04-03T02:51:14;6.30;28.40
1011;DHT22;494;48.744;10.106;2023-04-03T02:53:43;6.20;27.90
1011;DHT22;494;48.744;10.106;2023-04-03T02:56:13;6.10;27.80
1011;DHT22;494;48.744;10.106;2023-04-03T02:58:42;6.30;27.70
1011;DHT22;494;48.744;10.106;2023-04-03T03:01:11;6.40;27.40
1011;DHT22;494;48.744;10.106;2023-04-03T03:03:41;6.30;27.10
1011;DHT22;494;48.744;10.106;2023-04-03T03:06:14;6.30;26.90
1011;DHT22;494;48.744;10.106;2023-04-03T03:08:47;6.10;26.50
1011;DHT22;494;48.744;10.106;2023-04-03T03:11:18;6.50;26.40
1011;DHT22;494;48.744;10.106;2023-04-03T03:13:48;6.50;25.90
1011;DHT22;494;48.744;10.106;2023-04-03T03:16:16;6.50;25.10
1011;DHT22;494;48.744;10.106;2023-04-03T03:18:45;6.60;25.00
1011;DHT22;494;48.744;10.106;2023-04-03T03:21:14;6.50;24.80
1011;DHT22;494;48.744;10.106;2023-04-03T03:23:43;6.60;24.20
1011;DHT22;494;48.744;10.106;2023-04-03T03:26:12;6.60;24.40
1011;DHT22;494;48.744;10.106;2023-04-03T03:28:43;6.40;24.20
1011;DHT22;494;48.744;10.106;2023-04-03T03:31:12;6.60;24.20
1011;DHT22;494;48.744;10.106;2023-04-03T03:33:42;6.40;23.80
1011;DHT22;494;48.744;10.106;2023-04-03T03:36:11;6.40;24.10
1011;DHT22;494;48.744;10.106;2023-04-03T03:38:40;6.50;23.00
1011;DHT22;494;48.744;10.106;2023-04-03T03:41:09;6.30;23.20
1011;DHT22;494;48.744;10.106;2023-04-03T03:43:38;6.20;23.20
1011;DHT22;494;48.744;10.106;2023-04-03T03:46:08;6.20;23.20
1011;DHT22;494;48.744;10.106;2023-04-03T03:48:37;6.30;23.30
1011;DHT22;494;48.744;10.106;2023-04-03T03:51:06;6.30;23.20
1011;DHT22;494;48.744;10.106;2023-04-03T03:53:35;6.00;23.00
1011;DHT22;494;48.744;10.106;2023-04-03T03:56:04;6.00;22.80
1011;DHT22;494;48.744;10.106;2023-04-03T03:58:34;5.90;23.00
1011;DHT22;494;48.744;10.106;2023-04-03T04:01:03;6.00;23.50
1011;DHT22;494;48.744;10.106;2023-04-03T04:03:34;6.00;23.40
1011;DHT22;494;48.744;10.106;2023-04-03T04:06:04;6.10;23.90
1011;DHT22;494;48.744;10.106;2023-04-03T04:08:33;6.10;23.90
1011;DHT22;494;48.744;10.106;2023-04-03T04:11:02;6.20;23.50
1011;DHT22;494;48.744;10.106;2023-04-03T04:13:31;6.40;23.60
1011;DHT22;494;48.744;10.106;2023-04-03T04:16:00;6.40;23.40
1011;DHT22;494;48.744;10.106;2023-04-03T04:18:29;6.30;23.20
1011;DHT22;494;48.744;10.106;2023-04-03T04:20:59;6.30;22.90
1011;DHT22;494;48.744;10.106;2023-04-03T04:23:28;6.30;22.60
1011;DHT22;494;48.744;10.106;2023-04-03T04:25:56;6.20;22.20
1011;DHT22;494;48.744;10.106;2023-04-03T04:28:25;6.20;22.60
1011;DHT22;494;48.744;10.106;2023-04-03T04:30:53;6.10;22.80
1011;DHT22;494;48.744;10.106;2023-04-03T04:33:22;5.80;23.20
1011;DHT22;494;48.744;10.106;2023-04-03T04:35:51;5.80;23.60
1011;DHT22;494;48.744;10.106;2023-04-03T04:38:26;5.60;24.00
1011;DHT22;494;48.744;10.106;2023-04-03T04:41:06;5.70;24.20
1011;DHT22;494;48.744;10.106;2023-04-03T04:43:35;5.70;24.70
1011;DHT22;494;48.744;10.106;2023-04-03T04:46:05;5.50;25.00
1011;DHT22;494;48.744;10.106;2023-04-03T04:48:35;5.50;25.50
1011;DHT22;494;48.744;10.106;2023-04-03T04:51:07;5.40;25.30
1011;DHT22;494;48.744;10.106;2023-04-03T04:53:40;5.40;25.60
1011;DHT22;494;48.744;10.106;2023-04-03T04:56:10;5.50;25.80
1011;DHT22;494;48.744;10.106;2023-04-03T04:58:39;5.50;25.70
1011;DHT22;494;48.744;10.106;2023-04-03T05:01:10;5.50;25.80
1011;DHT22;494;48.744;10.106;2023-04-03T05:03:42;5.50;25.90
1011;DHT22;494;48.744;10.106;2023-04-03T05:06:14;5.50;26.30
1011;DHT22;494;48.744;10.106;2023-04-03T05:08:44;5.40;26.40
1011;DHT22;494;48.744;10.106;2023-04-03T05:11:12;5.50;26.30
1011;DHT22;494;48.744;10.106;2023-04-03T05:13:41;5.50;26.30
1011;DHT22;494;48.744;10.106;2023-04-03T05:16:10;5.30;26.30
1011;DHT22;494;48.744;10.106;2023-04-03T05:18:41;5.30;26.50
1011;DHT22;494;48.744;10.106;2023-04-03T05:21:35;5.40;26.60
1011;DHT22;494;48.744;10.106;2023-04-03T05:25:04;5.50;26.50
1011;DHT22;494;48.744;10.106;2023-04-03T05:28:21;5.40;26.30
1011;DHT22;494;48.744;10.106;2023-04-03T05:30:53;5.40;26.00
1011;DHT22;494;48.744;10.106;2023-04-03T05:33:23;5.40;26.90
1011;DHT22;494;48.744;10.106;2023-04-03T05:35:53;5.40;25.90
1011;DHT22;494;48.744;10.106;2023-04-03T05:38:23;5.40;26.20
1011;DHT22;494;48.744;10.106;2023-04-03T05:40:53;5.50;26.40
1011;DHT22;494;48.744;10.106;2023-04-03T05:43:22;5.50;26.70
1011;DHT22;494;48.744;10.106;2023-04-03T05:45:52;5.40;26.60
1011;DHT22;494;48.744;10.106;2023-04-03T05:48:21;5.50;26.00
1011;DHT22;494;48.744;10.106;2023-04-03T05:50:49;5.80;26.00
1011;DHT22;494;48.744;10.106;2023-04-03T05:53:27;5.70;26.00
1011;DHT22;494;48.744;10.106;2023-04-03T05:56:03;5.80;25.60
1011;DHT22;494;48.744;10.106;2023-04-03T05:58:34;5.80;26.00
1011;DHT22;494;48.744;10.106;2023-04-03T06:01:16;5.90;25.80
1011;DHT22;494;48.744;10.106;2023-04-03T06:03:45;6.00;25.30
1011;DHT22;494;48.744;10.106;2023-04-03T06:06:15;5.80;25.60
1011;DHT22;494;48.744;10.106;2023-04-03T06:08:43;5.80;26.40
1011;DHT22;494;48.744;10.106;2023-04-03T06:11:14;5.80;25.80
1011;DHT22;494;48.744;10.106;2023-04-03T06:13:43;5.80;25.70
1011;DHT22;494;48.744;10.106;2023-04-03T06:16:19;6.00;25.50
1011;DHT22;494;48.744;10.106;2023-04-03T06:18:48;5.90;25.10
1011;DHT22;494;48.744;10.106;2023-04-03T06:21:17;6.00;25.40
1011;DHT22;494;48.744;10.106;2023-04-03T06:23:45;5.80;26.00
1011;DHT22;494;48.744;10.106;2023-04-03T06:26:16;5.90;25.90
1011;DHT22;494;48.744;10.106;2023-04-03T06:28:45;5.80;25.30
1011;DHT22;494;48.744;10.106;2023-04-03T06:31:14;5.90;25.50
1011;DHT22;494;48.744;10.106;2023-04-03T06:33:44;5.90;25.50
1011;DHT22;494;48.744;10.106;2023-04-03T06:36:12;5.90;25.50
1011;DHT22;494;48.744;10.106;2023-04-03T06:38:42;5.90;25.00
1011;DHT22;494;48.744;10.106;2023-04-03T06:41:11;5.80;25.60
1011;DHT22;494;48.744;10.106;2023-04-03T06:43:42;5.80;25.60
1011;DHT22;494;48.744;10.106;2023-04-03T06:46:14;5.80;26.10
1011;DHT22;494;48.744;10.106;2023-04-03T06:48:44;5.90;26.30
1011;DHT22;494;48.744;10.106;2023-04-03T06:51:21;5.70;26.80
1011;DHT22;494;48.744;10.106;2023-04-03T06:53:52;5.80;26.50
1011;DHT22;494;48.744;10.106;2023-04-03T06:56:22;6.00;25.80
1011;DHT22;494;48.744;10.106;2023-04-03T06:58:54;6.00;25.80
1011;DHT22;494;48.744;10.106;2023-04-03T07:01:25;5.80;26.40
1011;DHT22;494;48.744;10.106;2023-04-03T07:03:55;5.90;26.90
1011;DHT22;494;48.744;10.106;2023-04-03T07:06:25;5.90;27.00
1011;DHT22;494;48.744;10.106;2023-04-03T07:08:55;6.00;26.70
1011;DHT22;494;48.744;10.106;2023-04-03T07:11:24;6.00;25.80
1011;DHT22;494;48.744;10.106;2023-04-03T07:13:54;6.00;26.20
1011;DHT22;494;48.744;10.106;2023-04-03T07:16:23;5.90;26.60
1011;DHT22;494;48.744;10.106;2023-04-03T07:18:52;6.10;26.20
1011;DHT22;494;48.744;10.106;2023-04-03T07:21:21;6.10;26.60
1011;DHT22;494;48.744;10.106;2023-04-03T07:23:49;6.30;26.80
1011;DHT22;494;48.744;10.106;2023-04-03T07:26:18;6.20;26.20
1011;DHT22;494;48.744;10.106;2023-04-03T07:28:48;6.50;26.40
1011;DHT22;494;48.744;10.106;2023-04-03T07:31:19;6.50;25.80
1011;DHT22;494;48.744;10.106;2023-04-03T07:33:57;6.30;25.40
1011;DHT22;494;48.744;10.106;2023-04-03T07:36:27;6.40;26.90
1011;DHT22;494;48.744;10.106;2023-04-03T07:39:00;6.20;26.60
1011;DHT22;494;48.744;10.106;2023-04-03T07:41:32;6.30;26.90
1011;DHT22;494;48.744;10.106;2023-04-03T07:44:01;6.40;26.40
1011;DHT22;494;48.744;10.106;2023-04-03T07:46:37;6.50;25.80
1011;DHT22;494;48.744;10.106;2023-04-03T07:49:07;6.60;25.90
1011;DHT22;494;48.744;10.106;2023-04-03T07:51:37;6.80;24.70
1011;DHT22;494;48.744;10.106;2023-04-03T07:54:07;6.90;24.80
1011;DHT22;494;48.744;10.106;2023-04-03T07:56:46;6.90;24.80
1011;DHT22;494;48.744;10.106;2023-04-03T07:59:23;6.70;24.80
1011;DHT22;494;48.744;10.106;2023-04-03T08:02:05;6.90;25.60
1011;DHT22;494;48.744;10.106;2023-04-03T08:04:42;6.90;25.30
1011;DHT22;494;48.744;10.106;2023-04-03T08:07:21;7.00;25.20
1011;DHT22;494;48.744;10.106;2023-04-03T08:09:52;7.10;24.20
1011;DHT22;494;48.744;10.106;2023-04-03T08:12:22;7.10;24.50
1011;DHT22;494;48.744;10.106;2023-04-03T08:15:08;7.00;23.50
1011;DHT22;494;48.744;10.106;2023-04-03T08:17:43;6.90;24.10
1011;DHT22;494;48.744;10.106;2023-04-03T08:20:17;6.90;24.30
1011;DHT22;494;48.744;10.106;2023-04-03T08:22:51;7.10;24.40
1011;DHT22;494;48.744;10.106;2023-04-03T08:25:38;7.50;24.70
1011;DHT22;494;48.744;10.106;2023-04-03T08:28:20;7.80;22.80
1011;DHT22;494;48.744;10.106;2023-04-03T08:30:56;7.80;22.00
1011;DHT22;494;48.744;10.106;2023-04-03T08:33:34;7.80;21.50
1011;DHT22;494;48.744;10.106;2023-04-03T08:36:05;8.00;21.00
1011;DHT22;494;48.744;10.106;2023-04-03T08:38:35;8.10;20.00
1011;DHT22;494;48.744;10.106;2023-04-03T08:41:11;8.00;20.00
1011;DHT22;494;48.744;10.106;2023-04-03T08:43:56;8.20;20.60
1011;DHT22;494;48.744;10.106;2023-04-03T08:46:38;8.20;19.30
1011;DHT22;494;48.744;10.106;2023-04-03T08:49:22;8.20;19.90
1011;DHT22;494;48.744;10.106;2023-04-03T08:51:59;8.00;19.30
1011;DHT22;494;48.744;10.106;2023-04-03T08:54:35;7.90;20.20
1011;DHT22;494;48.744;10.106;2023-04-03T08:57:11;8.10;20.40
1011;DHT22;494;48.744;10.106;2023-04-03T08:59:43;8.40;18.70
1011;DHT22;494;48.744;10.106;2023-04-03T09:02:23;8.50;18.50
1011;DHT22;494;48.744;10.106;2023-04-03T09:04:58;8.50;18.40
1011;DHT22;494;48.744;10.106;2023-04-03T09:07:37;8.50;18.50
1011;DHT22;494;48.744;10.106;2023-04-03T09:10:11;8.50;18.30
1011;DHT22;494;48.744;10.106;2023-04-03T09:12:44;8.50;18.50
1011;DHT22;494;48.744;10.106;2023-04-03T09:15:20;8.60;18.40
1011;DHT22;494;48.744;10.106;2023-04-03T09:18:11;8.70;17.30
1011;DHT22;494;48.744;10.106;2023-04-03T09:20:53;9.00;16.90
1011;DHT22;494;48.744;10.106;2023-04-03T09:23:32;9.00;16.10
1011;DHT22;494;48.744;10.106;2023-04-03T09:26:13;9.00;16.20
1011;DHT22;494;48.744;10.106;2023-04-03T09:28:48;9.10;15.70
1011;DHT22;494;48.744;10.106;2023-04-03T09:31:22;9.10;15.60
1011;DHT22;494;48.744;10.106;2023-04-03T09:33:54;9.10;15.70
1011;DHT22;494;48.744;10.106;2023-04-03T09:36:44;9.10;15.60
1011;DHT22;494;48.744;10.106;2023-04-03T09:39:16;9.20;15.90
1011;DHT22;494;48.744;10.106;2023-04-03T09:41:59;9.50;15.60
1011;DHT22;494;48.744;10.106;2023-04-03T09:44:34;9.70;15.00
1011;DHT22;494;48.744;10.106;2023-04-03T09:47:21;9.80;14.60
1011;DHT22;494;48.744;10.106;2023-04-03T09:50:20;9.80;13.50
1011;DHT22;494;48.744;10.106;2023-04-03T09:53:28;9.70;13.90
1011;DHT22;494;48.744;10.106;2023-04-03T09:56:00;9.60;13.70
1011;DHT22;494;48.744;10.106;2023-04-03T09:58:32;9.60;12.70
1011;DHT22;494;48.744;10.106;2023-04-03T10:01:39;9.50;13.20
1011;DHT22;494;48.744;10.106;2023-04-03T10:04:25;9.30;13.10
1011;DHT22;494;48.744;10.106;2023-04-03T10:07:26;9.50;14.00
1011;DHT22;494;48.744;10.106;2023-04-03T10:10:14;9.60;11.30
1011;DHT22;494;48.744;10.106;2023-04-03T10:13:04;9.40;12.50
1011;DHT22;494;48.744;10.106;2023-04-03T10:15:42;9.40;12.20
1011;DHT22;494;48.744;10.106;2023-04-03T10:18:30;9.30;12.60
1011;DHT22;494;48.744;10.106;2023-04-03T10:21:13;9.40;11.70
1011;DHT22;494;48.744;10.106;2023-04-03T10:23:58;9.50;12.60
1011;DHT22;494;48.744;10.106;2023-04-03T10:26:52;9.60;13.10
1011;DHT22;494;48.744;10.106;2023-04-03T10:29:36;9.60;13.20
1011;DHT22;494;48.744;10.106;2023-04-03T10:32:32;9.60;12.50
1011;DHT22;494;48.744;10.106;2023-04-03T10:35:17;9.50;12.30
1011;DHT22;494;48.744;10.106;2023-04-03T10:38:03;9.40;11.90
1011;DHT22;494;48.744;10.106;2023-04-03T10:40:47;9.10;11.80
1011;DHT22;494;48.744;10.106;2023-04-03T10:43:34;8.90;12.20
1011;DHT22;494;48.744;10.106;2023-04-03T10:46:12;8.80;12.00
1011;DHT22;494;48.744;10.106;2023-04-03T10:48:57;8.80;12.50
1011;DHT22;494;48.744;10.106;2023-04-03T10:51:46;8.90;11.30
1011;DHT22;494;48.744;10.106;2023-04-03T10:54:36;9.00;10.90
1011;DHT22;494;48.744;10.106;2023-04-03T10:57:09;9.50;10.70
1011;DHT22;494;48.744;10.106;2023-04-03T10:59:45;9.40;10.40
1011;DHT22;494;48.744;10.106;2023-04-03T11:02:24;9.20;11.00
1011;DHT22;494;48.744;10.106;2023-04-03T11:05:01;8.90;10.80
1011;DHT22;494;48.744;10.106;2023-04-03T11:07:39;8.80;10.90
1011;DHT22;494;48.744;10.106;2023-04-03T11:10:18;8.80;11.90
1011;DHT22;494;48.744;10.106;2023-04-03T11:12:54;8.70;12.00
1011;DHT22;494;48.744;10.106;2023-04-03T11:15:32;8.70;11.80
1011;DHT22;494;48.744;10.106;2023-04-03T11:18:06;8.80;11.60
1011;DHT22;494;48.744;10.106;2023-04-03T11:20:43;8.60;11.30
1011;DHT22;494;48.744;10.106;2023-04-03T11:23:21;8.70;12.10
1011;DHT22;494;48.744;10.106;2023-04-03T11:26:10;8.50;12.00
1011;DHT22;494;48.744;10.106;2023-04-03T11:28:41;8.50;12.50
1011;DHT22;494;48.744;10.106;2023-04-03T11:31:33;8.50;11.90
1011;DHT22;494;48.744;10.106;2023-04-03T11:34:22;8.60;12.40
1011;DHT22;494;48.744;10.106;2023-04-03T11:37:05;8.80;12.20
1011;DHT22;494;48.744;10.106;2023-04-03T11:39:49;8.90;12.10
1011;DHT22;494;48.744;10.106;2023-04-03T11:42:29;8.90;11.00
1011;DHT22;494;48.744;10.106;2023-04-03T11:45:25;8.90;12.00
1011;DHT22;494;48.744;10.106;2023-04-03T11:48:06;9.10;11.10
1011;DHT22;494;48.744;10.106;2023-04-03T11:50:56;9.20;10.00
1011;DHT22;494;48.744;10.106;2023-04-03T11:53:32;9.30;8.80
1011;DHT22;494;48.744;10.106;2023-04-03T11:56:27;9.40;9.20
1011;DHT22;494;48.744;10.106;2023-04-03T11:59:23;9.60;9.00
1011;DHT22;494;48.744;10.106;2023-04-03T12:02:00;9.70;8.50
1011;DHT22;494;48.744;10.106;2023-04-03T12:04:38;9.60;9.40
1011;DHT22;494;48.744;10.106;2023-04-03T12:07:17;9.40;10.00
1011;DHT22;494;48.744;10.106;2023-04-03T12:09:59;9.60;9.90
1011;DHT22;494;48.744;10.106;2023-04-03T12:12:35;9.40;10.20
1011;DHT22;494;48.744;10.106;2023-04-03T12:18:40;9.50;10.10
1011;DHT22;494;48.744;10.106;2023-04-03T12:21:13;9.50;9.70
1011;DHT22;494;48.744;10.106;2023-04-03T12:27:09;9.90;10.20
1011;DHT22;494;48.744;10.106;2023-04-03T12:30:05;10.90;8.50
1011;DHT22;494;48.744;10.106;2023-04-03T12:33:22;12.50;6.30
1011;DHT22;494;48.744;10.106;2023-04-03T12:36:22;13.40;4.10
1011;DHT22;494;48.744;10.106;2023-04-03T12:39:14;13.10;3.40
1011;DHT22;494;48.744;10.106;2023-04-03T12:43:00;12.70;4.70
1011;DHT22;494;48.744;10.106;2023-04-03T12:46:33;11.80;6.30
1011;DHT22;494;48.744;10.106;2023-04-03T12:53:24;11.00;6.60
1011;DHT22;494;48.744;10.106;2023-04-03T12:58:37;11.00;6.60
1011;DHT22;494;48.744;10.106;2023-04-03T12:59:50;11.10;6.20
1011;DHT22;494;48.744;10.106;2023-04-03T13:02:45;11.20;5.70
1011;DHT22;494;48.744;10.106;2023-04-03T13:05:33;11.10;5.60
1011;DHT22;494;48.744;10.106;2023-04-03T13:08:48;11.20;5.20
1011;DHT22;494;48.744;10.106;2023-04-03T13:11:20;11.40;5.00
1011;DHT22;494;48.744;10.106;2023-04-03T13:13:58;11.90;4.10
1011;DHT22;494;48.744;10.106;2023-04-03T13:16:33;12.20;3.90
1011;DHT22;494;48.744;10.106;2023-04-03T13:19:27;12.60;3.10
1011;DHT22;494;48.744;10.106;2023-04-03T13:29:17;12.40;3.90
1011;DHT22;494;48.744;10.106;2023-04-03T13:31:39;11.80;5.00
1011;DHT22;494;48.744;10.106;2023-04-03T13:34:53;11.60;6.60
1011;DHT22;494;48.744;10.106;2023-04-03T13:38:40;11.00;7.40
1011;DHT22;494;48.744;10.106;2023-04-03T13:50:56;9.70;10.00
1011;DHT22;494;48.744;10.106;2023-04-03T13:53:34;9.90;9.60
1011;DHT22;494;48.744;10.106;2023-04-03T13:56:34;10.00;9.20
1011;DHT22;494;48.744;10.106;2023-04-03T13:59:22;10.80;8.20
1011;DHT22;494;48.744;10.106;2023-04-03T14:02:42;11.50;7.20
1011;DHT22;494;48.744;10.106;2023-04-03T14:05:36;11.80;4.80
1011;DHT22;494;48.744;10.106;2023-04-03T14:08:38;11.30;6.50
1011;DHT22;494;48.744;10.106;2023-04-03T14:11:13;10.80;6.60
1011;DHT22;494;48.744;10.106;2023-04-03T14:13:52;10.50;6.30
1011;DHT22;494;48.744;10.106;2023-04-03T14:16:46;10.40;7.80
1011;DHT22;494;48.744;10.106;2023-04-03T14:19:29;10.50;7.60
1011;DHT22;494;48.744;10.106;2023-04-03T14:22:06;10.50;6.50
1011;DHT22;494;48.744;10.106;2023-04-03T14:25:09;10.40;6.30
1011;DHT22;494;48.744;10.106;2023-04-03T14:27:56;10.00;6.90
1011;DHT22;494;48.744;10.106;2023-04-03T14:30:54;10.00;6.60
1011;DHT22;494;48.744;10.106;2023-04-03T14:33:24;10.20;5.40
1011;DHT22;494;48.744;10.106;2023-04-03T14:36:21;11.40;4.60
1011;DHT22;494;48.744;10.106;2023-04-03T14:39:06;13.30;1.10
1011;DHT22;494;48.744;10.106;2023-04-03T14:42:40;14.80;1.00
1011;DHT22;494;48.744;10.106;2023-04-03T14:46:10;16.30;1.00
1011;DHT22;494;48.744;10.106;2023-04-03T14:57:54;13.90;1.00
1011;DHT22;494;48.744;10.106;2023-04-03T15:00:34;12.70;2.50
1011;DHT22;494;48.744;10.106;2023-04-03T15:03:16;11.70;3.90
1011;DHT22;494;48.744;10.106;2023-04-03T15:06:05;11.00;4.90
1011;DHT22;494;48.744;10.106;2023-04-03T15:09:20;10.60;5.10
1011;DHT22;494;48.744;10.106;2023-04-03T15:12:08;10.20;5.10
1011;DHT22;494;48.744;10.106;2023-04-03T15:15:15;10.40;4.90
1011;DHT22;494;48.744;10.106;2023-04-03T15:17:57;11.40;4.20
1011;DHT22;494;48.744;10.106;2023-04-03T15:21:09;11.50;3.90
1011;DHT22;494;48.744;10.106;2023-04-03T15:24:10;11.90;3.20
1011;DHT22;494;48.744;10.106;2023-04-03T15:27:23;13.40;1.10
1011;DHT22;494;48.744;10.106;2023-04-03T15:30:18;15.10;1.00
1011;DHT22;494;48.744;10.106;2023-04-03T15:33:05;15.40;1.00
1011;DHT22;494;48.744;10.106;2023-04-03T15:36:19;14.40;1.00
1011;DHT22;494;48.744;10.106;2023-04-03T15:39:06;12.80;1.40
1011;DHT22;494;48.744;10.106;2023-04-03T15:41:52;11.60;2.90
1011;DHT22;494;48.744;10.106;2023-04-03T15:44:32;10.90;4.20
1011;DHT22;494;48.744;10.106;2023-04-03T15:47:17;10.50;5.10
1011;DHT22;494;48.744;10.106;2023-04-03T15:50:07;10.20;5.20
1011;DHT22;494;48.744;10.106;2023-04-03T15:52:57;9.90;5.30
1011;DHT22;494;48.744;10.106;2023-04-03T15:56:10;10.00;5.70
1011;DHT22;494;48.744;10.106;2023-04-03T15:59:23;10.30;4.70
1011;DHT22;494;48.744;10.106;2023-04-03T16:02:06;10.40;4.40
1011;DHT22;494;48.744;10.106;2023-04-03T16:05:02;10.20;4.30
1011;DHT22;494;48.744;10.106;2023-04-03T16:08:25;10.40;4.50
1011;DHT22;494;48.744;10.106;2023-04-03T16:11:04;11.30;3.30
1011;DHT22;494;48.744;10.106;2023-04-03T16:13:43;11.80;2.80
1011;DHT22;494;48.744;10.106;2023-04-03T16:16:15;12.70;1.80
1011;DHT22;494;48.744;10.106;2023-04-03T16:19:06;12.70;1.00
1011;DHT22;494;48.744;10.106;2023-04-03T16:21:40;12.70;1.60
1011;DHT22;494;48.744;10.106;2023-04-03T16:24:39;12.80;1.20
1011;DHT22;494;48.744;10.106;2023-04-03T16:27:18;12.50;2.50
1011;DHT22;494;48.744;10.106;2023-04-03T16:30:02;12.10;3.60
1011;DHT22;494;48.744;10.106;2023-04-03T16:32:38;11.50;4.00
1011;DHT22;494;48.744;10.106;2023-04-03T16:35:11;10.70;4.00
1011;DHT22;494;48.744;10.106;2023-04-03T16:37:40;10.60;4.80
1011;DHT22;494;48.744;10.106;2023-04-03T16:40:10;10.40;5.30
1011;DHT22;494;48.744;10.106;2023-04-03T16:42:42;10.10;5.70
1011;DHT22;494;48.744;10.106;2023-04-03T16:45:13;9.90;5.90
1011;DHT22;494;48.744;10.106;2023-04-03T16:48:09;9.90;6.10
1011;DHT22;494;48.744;10.106;2023-04-03T16:50:46;9.90;6.30
1011;DHT22;494;48.744;10.106;2023-04-03T16:53:53;9.80;6.60
1011;DHT22;494;48.744;10.106;2023-04-03T16:56:30;9.80;6.80
1011;DHT22;494;48.744;10.106;2023-04-03T16:59:00;9.80;6.50
1011;DHT22;494;48.744;10.106;2023-04-03T17:01:42;9.60;7.40
1011;DHT22;494;48.744;10.106;2023-04-03T17:04:16;9.50;7.60
1011;DHT22;494;48.744;10.106;2023-04-03T17:06:47;9.30;8.50
1011;DHT22;494;48.744;10.106;2023-04-03T17:09:20;9.10;8.20
1011;DHT22;494;48.744;10.106;2023-04-03T17:11:50;9.10;8.40
1011;DHT22;494;48.744;10.106;2023-04-03T17:14:20;9.00;8.60
1011;DHT22;494;48.744;10.106;2023-04-03T17:16:51;9.00;8.70
1011;DHT22;494;48.744;10.106;2023-04-03T17:19:21;8.90;9.00
1011;DHT22;494;48.744;10.106;2023-04-03T17:22:22;8.90;9.20
1011;DHT22;494;48.744;10.106;2023-04-03T17:24:51;8.80;9.60
1011;DHT22;494;48.744;10.106;2023-04-03T17:28:09;8.80;9.40
1011;DHT22;494;48.744;10.106;2023-04-03T17:31:50;8.90;9.40
1011;DHT22;494;48.744;10.106;2023-04-03T17:35:53;8.80;9.20
1011;DHT22;494;48.744;10.106;2023-04-03T17:51:21;8.60;9.80
1011;DHT22;494;48.744;10.106;2023-04-03T17:53:51;8.50;9.90
1011;DHT22;494;48.744;10.106;2023-04-03T17:56:22;8.50;10.20
1011;DHT22;494;48.744;10.106;2023-04-03T17:58:56;8.30;9.90
1011;DHT22;494;48.744;10.106;2023-04-03T18:01:27;8.10;10.50
1011;DHT22;494;48.744;10.106;2023-04-03T18:04:00;8.00;10.70
1011;DHT22;494;48.744;10.106;2023-04-03T18:06:35;8.10;10.80
1011;DHT22;494;48.744;10.106;2023-04-03T18:09:09;8.10;10.90
1011;DHT22;494;48.744;10.106;2023-04-03T18:11:41;7.90;11.00
1011;DHT22;494;48.744;10.106;2023-04-03T18:14:12;7.70;11.50
1011;DHT22;494;48.744;10.106;2023-04-03T18:16:44;7.60;11.80
1011;DHT22;494;48.744;10.106;2023-04-03T18:19:14;7.60;12.00
1011;DHT22;494;48.744;10.106;2023-04-03T18:21:52;7.70;11.70
1011;DHT22;494;48.744;10.106;2023-04-03T18:24:24;7.80;11.80
1011;DHT22;494;48.744;10.106;2023-04-03T18:26:57;7.70;11.30